Time;durP1;ratioP1;P1;durP2;ratioP2;P2;SDS_P1;SDS_P2;PMS_P1;PMS_P2;Temp;Humidity;BMP_temperature;BMP_pressure;BME280_temperature;BME280_humidity;BME280_pressure;Samples;Min_cycle;Max_cycle;Signal;HPM_P1;HPM_P2
2022/04/04 00:00:00;;;;;;;5.82;1.90;;;2.80;99.90;;;;;;5088015;28;20044;-85
2022/04/04 00:02:25;;;;;;;9.45;2.42;;;3.30;99.90;;;;;;5071407;28;20558;-79
2022/04/04 00:04:51;;;;;;;3.00;2.00;;;3.20;99.90;;;;;;5088262;28;20439;-86
2022/04/04 00:07:16;;;;;;;5.75;1.90;;;2.60;99.90;;;;;;5089680;28;20111;-83
2022/04/04 00:09:42;;;;;;;2.63;1.98;;;2.80;99.90;;;;;;5087740;28;20480;-84
2022/04/04 00:12:09;;;;;;;5.15;2.03;;;2.50;99.90;;;;;;5087632;28;20072;-82
2022/04/04 00:14:35;;;;;;;4.15;2.10;;;2.90;99.90;;;;;;5071938;28;20094;-86
2022/04/04 00:17:00;;;;;;;7.78;2.40;;;2.80;99.90;;;;;;5087378;28;20437;-81
2022/04/04 00:19:27;;;;;;;3.08;2.42;;;2.30;99.90;;;;;;5089488;28;20113;-85
2022/04/04 00:21:53;;;;;;;4.05;2.30;;;2.90;99.90;;;;;;5080726;28;20062;-83
2022/04/04 00:24:19;;;;;;;6.97;2.42;;;2.90;99.90;;;;;;5088204;28;20040;-84
2022/04/04 00:26:44;;;;;;;3.97;2.15;;;2.80;99.90;;;;;;5071222;28;20065;-84
2022/04/04 00:29:10;;;;;;;6.43;2.30;;;2.70;99.90;;;;;;5086907;28;20058;-87
2022/04/04 00:31:36;;;;;;;3.25;1.80;;;4.80;99.90;;;;;;5089597;28;20048;-85
2022/04/04 00:34:02;;;;;;;4.18;1.92;;;5.30;99.90;;;;;;5087870;28;20059;-84
2022/04/04 00:36:28;;;;;;;7.68;2.60;;;2.80;99.90;;;;;;5087150;28;20450;-84
2022/04/04 00:38:53;;;;;;;4.35;2.28;;;2.90;99.90;;;;;;5054051;28;20166;-82
2022/04/04 00:41:19;;;;;;;3.10;2.05;;;3.00;99.90;;;;;;5088056;28;20561;-83
2022/04/04 00:43:49;;;;;;;5.88;2.25;;;2.90;99.90;;;;;;5069774;28;20036;-81
2022/04/04 00:46:15;;;;;;;7.10;2.65;;;2.50;99.90;;;;;;5088945;28;20048;-86
2022/04/04 00:48:40;;;;;;;7.53;2.40;;;2.60;99.90;;;;;;5070819;28;20358;-87
2022/04/04 00:51:06;;;;;;;8.02;2.58;;;2.80;99.90;;;;;;5086549;28;20039;-84
2022/04/04 00:53:32;;;;;;;3.22;2.17;;;2.90;99.90;;;;;;5087820;28;20043;-81
2022/04/04 00:55:59;;;;;;;4.65;2.65;;;2.30;99.90;;;;;;5070371;28;20040;-84
2022/04/04 00:58:27;;;;;;;4.22;2.90;;;2.50;99.90;;;;;;5069640;28;20047;-81
2022/04/04 01:00:54;;;;;;;7.20;3.42;;;2.40;99.90;;;;;;5070418;28;20476;-83
2022/04/04 01:03:19;;;;;;;4.53;3.13;;;3.40;99.90;;;;;;5086998;28;20048;-84
2022/04/04 01:05:46;;;;;;;3.65;2.97;;;4.10;99.90;;;;;;5088579;28;20051;-86
2022/04/04 01:08:13;;;;;;;4.72;3.28;;;3.20;99.90;;;;;;5088797;28;20093;-80
2022/04/04 01:10:43;;;;;;;4.43;3.25;;;3.10;99.90;;;;;;5094352;28;20059;-77
2022/04/04 01:13:11;;;;;;;4.18;3.42;;;3.30;99.90;;;;;;5074641;28;20428;-84
2022/04/04 01:15:37;;;;;;;6.38;3.47;;;3.30;99.90;;;;;;5087740;28;20055;-79
2022/04/04 01:18:06;;;;;;;7.78;5.15;;;4.50;99.90;;;;;;5087846;28;20085;-84
2022/04/04 01:20:32;;;;;;;5.72;5.05;;;3.30;99.90;;;;;;5087271;28;20114;-84
2022/04/04 01:22:58;;;;;;;9.88;4.93;;;3.20;99.90;;;;;;5087155;28;20047;-85
2022/04/04 01:25:26;;;;;;;5.28;4.75;;;3.30;99.90;;;;;;5088072;28;20123;-85
2022/04/04 01:27:53;;;;;;;9.00;5.28;;;3.50;99.90;;;;;;5069150;28;20052;-82
2022/04/04 01:30:19;;;;;;;9.02;5.63;;;3.70;99.90;;;;;;5061803;28;20043;-82
2022/04/04 01:32:45;;;;;;;7.65;6.45;;;3.30;99.90;;;;;;5079766;28;20051;-80
2022/04/04 01:35:11;;;;;;;10.43;7.22;;;3.50;99.90;;;;;;5081742;28;20052;-83
2022/04/04 01:37:37;;;;;;;10.63;6.43;;;3.50;99.90;;;;;;5080946;28;20435;-85
2022/04/04 01:40:07;;;;;;;14.70;7.15;;;4.50;99.90;;;;;;5061015;28;20879;-80
2022/04/04 01:42:33;;;;;;;9.40;5.72;;;3.60;99.90;;;;;;5078779;28;20036;-78
2022/04/04 01:44:59;;;;;;;9.75;7.90;;;5.30;99.90;;;;;;5064904;28;20414;-80
2022/04/04 01:47:24;;;;;;;11.18;7.97;;;6.20;99.90;;;;;;5081324;28;20047;-82
2022/04/04 01:49:50;;;;;;;12.93;8.77;;;5.60;99.90;;;;;;5062402;28;20048;-79
2022/04/04 01:52:15;;;;;;;13.55;7.95;;;3.40;99.90;;;;;;5061294;28;20093;-84
2022/04/04 01:54:41;;;;;;;10.25;8.27;;;5.50;99.90;;;;;;5078980;28;20051;-84
2022/04/04 01:57:07;;;;;;;14.65;9.35;;;5.70;99.90;;;;;;5064991;28;20423;-83
2022/04/04 01:59:32;;;;;;;12.80;9.38;;;3.90;99.90;;;;;;5100132;28;20036;-82
2022/04/04 02:01:58;;;;;;;16.00;9.07;;;3.80;99.90;;;;;;5060390;28;20050;-85
2022/04/04 02:04:23;;;;;;;12.23;7.85;;;3.80;99.90;;;;;;5096610;28;20823;-86
2022/04/04 02:06:49;;;;;;;15.88;9.10;;;5.20;99.90;;;;;;5080061;28;20040;-85
2022/04/04 02:09:15;;;;;;;12.32;8.05;;;3.40;99.90;;;;;;5080839;28;20048;-80
2022/04/04 02:11:40;;;;;;;12.40;9.30;;;3.60;99.90;;;;;;5080926;28;20032;-84
2022/04/04 02:14:06;;;;;;;11.82;8.57;;;5.70;99.90;;;;;;5096070;28;20047;-82
2022/04/04 02:16:32;;;;;;;12.98;9.50;;;5.50;99.90;;;;;;5060851;28;20518;-84
2022/04/04 02:18:57;;;;;;;14.43;9.55;;;3.80;99.90;;;;;;5064060;28;20051;-85
2022/04/04 02:21:23;;;;;;;9.75;8.45;;;3.80;99.90;;;;;;5064991;28;20036;-83
2022/04/04 02:23:49;;;;;;;11.38;8.55;;;3.80;99.90;;;;;;5065773;28;20557;-83
2022/04/04 02:26:14;;;;;;;13.85;8.80;;;3.80;99.90;;;;;;5081811;28;20081;-84
2022/04/04 02:28:40;;;;;;;16.23;9.57;;;5.50;99.90;;;;;;5086231;28;20499;-84
2022/04/04 02:31:06;;;;;;;11.13;9.32;;;5.40;99.90;;;;;;5076527;28;20044;-78
2022/04/04 02:33:32;;;;;;;12.80;9.80;;;3.70;99.90;;;;;;5094170;28;20244;-83
2022/04/04 02:35:57;;;;;;;15.45;8.43;;;3.60;99.90;;;;;;5089393;28;20033;-84
2022/04/04 02:38:25;;;;;;;13.15;9.48;;;5.90;99.90;;;;;;5073599;28;20472;-83
2022/04/04 02:40:52;;;;;;;16.05;10.02;;;3.60;99.90;;;;;;5075646;28;20051;-80
2022/04/04 02:43:19;;;;;;;13.82;10.38;;;3.90;99.90;;;;;;5075767;28;20127;-82
2022/04/04 02:45:45;;;;;;;11.57;8.85;;;3.90;99.90;;;;;;5092057;28;20059;-81
2022/04/04 02:48:11;;;;;;;11.77;9.23;;;3.80;99.90;;;;;;5089588;28;20510;-80
2022/04/04 02:50:36;;;;;;;12.30;9.25;;;3.50;99.90;;;;;;5072535;28;20060;-80
2022/04/04 02:53:03;;;;;;;12.93;9.30;;;3.50;99.90;;;;;;5075522;28;20036;-80
2022/04/04 02:58:13;;;;;;;14.25;8.68;;;3.80;99.90;;;;;;5098503;28;20115;-80
2022/04/04 03:00:40;;;;;;;16.30;10.15;;;3.90;99.90;;;;;;5073543;28;20119;-80
2022/04/04 03:03:06;;;;;;;13.55;9.38;;;5.20;99.90;;;;;;5076003;28;20088;-82
2022/04/04 03:05:31;;;;;;;12.93;9.77;;;5.90;99.90;;;;;;5092462;28;20043;-78
2022/04/04 03:07:57;;;;;;;11.70;9.07;;;4.10;99.90;;;;;;5090261;28;20116;-78
2022/04/04 03:10:23;;;;;;;15.30;10.60;;;4.10;99.90;;;;;;5092388;28;20036;-79
2022/04/04 03:12:50;;;;;;;13.68;10.05;;;4.20;99.90;;;;;;5075609;28;20086;-81
2022/04/04 03:15:19;;;;;;;11.25;8.45;;;3.50;99.90;;;;;;5093228;28;20123;-82
2022/04/04 03:17:47;;;;;;;16.90;10.10;;;4.10;99.90;;;;;;5057628;28;20036;-82
2022/04/04 03:20:15;;;;;;;13.25;10.68;;;3.70;99.90;;;;;;5089120;28;20043;-82
2022/04/04 03:22:46;;;;;;;15.68;9.43;;;4.20;99.90;;;;;;5073148;28;20070;-82
2022/04/04 03:25:14;;;;;;;15.88;10.27;;;3.70;99.90;;;;;;5092135;28;20043;-82
2022/04/04 03:27:42;;;;;;;19.27;10.07;;;4.20;99.90;;;;;;5092329;28;20040;-82
2022/04/04 03:30:10;;;;;;;18.02;10.02;;;4.10;99.90;;;;;;5055318;28;20522;-83
2022/04/04 03:32:36;;;;;;;16.27;10.63;;;4.40;99.90;;;;;;5055413;28;20362;-81
2022/04/04 03:35:02;;;;;;;18.48;10.45;;;4.20;99.90;;;;;;5091515;28;20035;-83
2022/04/04 03:37:28;;;;;;;17.67;10.13;;;4.30;99.90;;;;;;5075578;28;20051;-83
2022/04/04 03:39:53;;;;;;;16.60;8.93;;;4.30;99.90;;;;;;5089899;28;20039;-80
2022/04/04 03:42:20;;;;;;;17.25;11.27;;;4.30;99.90;;;;;;5072311;28;20036;-78
2022/04/04 03:44:46;;;;;;;13.02;9.50;;;6.00;99.90;;;;;;5073080;28;20043;-82
2022/04/04 03:47:12;;;;;;;16.58;11.63;;;6.30;99.90;;;;;;5091601;28;20122;-83
2022/04/04 03:49:39;;;;;;;19.70;11.88;;;5.90;99.90;;;;;;5092201;28;20138;-80
2022/04/04 03:52:08;;;;;;;19.95;11.70;;;6.10;99.90;;;;;;5071660;28;20625;-82
2022/04/04 03:54:35;;;;;;;18.05;10.73;;;4.40;99.90;;;;;;5088665;28;20115;-82
2022/04/04 03:57:02;;;;;;;24.13;11.82;;;4.40;99.90;;;;;;5091212;28;20403;-83
2022/04/04 03:59:28;;;;;;;16.70;11.20;;;4.40;99.90;;;;;;5091917;28;20047;-83
2022/04/04 04:01:54;;;;;;;20.17;11.63;;;6.20;99.90;;;;;;5072482;28;20043;-82
2022/04/04 04:04:19;;;;;;;20.33;11.63;;;4.40;99.90;;;;;;5054856;28;20436;-83
2022/04/04 04:06:45;;;;;;;17.50;11.73;;;6.20;99.90;;;;;;5088825;28;20040;-79
2022/04/04 04:09:12;;;;;;;16.10;8.40;;;6.20;99.90;;;;;;5091234;28;20647;-81
2022/04/04 04:11:38;;;;;;;19.48;11.45;;;5.50;99.90;;;;;;5092186;28;20436;-79
2022/04/04 04:14:05;;;;;;;24.63;12.93;;;4.00;99.90;;;;;;5070945;28;20032;-81
2022/04/04 04:16:31;;;;;;;19.35;11.68;;;4.40;99.90;;;;;;5088598;28;20044;-78
2022/04/04 04:18:56;;;;;;;19.77;11.68;;;6.20;99.90;;;;;;5089935;28;20185;-81
2022/04/04 04:21:23;;;;;;;19.48;11.95;;;2.90;99.90;;;;;;5074460;28;20051;-83
2022/04/04 04:23:50;;;;;;;22.92;13.45;;;5.90;99.90;;;;;;5074109;28;20049;-82
2022/04/04 04:26:16;;;;;;;11.38;8.65;;;4.00;99.90;;;;;;5088152;28;20274;-81
2022/04/04 04:28:47;;;;;;;17.45;9.45;;;6.60;99.90;;;;;;5070467;28;20055;-82
2022/04/04 04:31:14;;;;;;;16.75;11.07;;;6.80;99.90;;;;;;5063951;28;20138;-78
2022/04/04 04:33:40;;;;;;;19.65;12.20;;;4.50;99.90;;;;;;5071528;28;20039;-88
2022/04/04 04:36:07;;;;;;;20.23;12.00;;;5.00;99.90;;;;;;5070410;28;20526;-88
2022/04/04 04:38:34;;;;;;;18.10;10.73;;;4.60;99.90;;;;;;5071934;28;20040;-86
2022/04/04 04:41:00;;;;;;;19.88;11.82;;;4.70;99.90;;;;;;5073449;28;20039;-87
2022/04/04 04:43:26;;;;;;;26.65;12.52;;;5.70;99.90;;;;;;5074578;28;20082;-88
2022/04/04 04:45:52;;;;;;;16.80;10.27;;;5.20;99.90;;;;;;5072721;28;20128;-84
2022/04/04 04:48:18;;;;;;;21.23;12.73;;;4.10;99.90;;;;;;5088326;28;20063;-90
2022/04/04 04:50:44;;;;;;;19.85;11.60;;;;;;;;;;5070550;28;20390;-86
2022/04/04 04:53:10;;;;;;;17.25;11.15;;;4.70;99.90;;;;;;5080298;28;20044;-85
2022/04/04 04:55:36;;;;;;;17.80;10.43;;;4.60;99.90;;;;;;5072064;28;20540;-87
2022/04/04 04:58:02;;;;;;;21.98;12.13;;;4.20;99.90;;;;;;5090630;28;20500;-91
2022/04/04 05:00:29;;;;;;;18.95;10.27;;;4.50;99.90;;;;;;5102884;28;20114;-91
2022/04/04 05:05:41;;;;;;;13.23;7.07;;;4.70;99.90;;;;;;5089222;28;20499;-85
2022/04/04 05:08:08;;;;;;;19.52;11.70;;;4.40;99.90;;;;;;5102070;28;20354;-88
2022/04/04 05:10:34;;;;;;;13.32;8.95;;;4.50;99.90;;;;;;5094846;28;20494;-76
2022/04/04 05:12:59;;;;;;;20.17;11.85;;;4.60;99.90;;;;;;5108224;28;20031;-84
2022/04/04 05:15:25;;;;;;;16.55;11.10;;;4.60;99.90;;;;;;5092515;28;20077;-85
2022/04/04 05:17:52;;;;;;;17.70;9.77;;;4.20;99.90;;;;;;5089162;28;20036;-94
2022/04/04 05:20:19;;;;;;;21.13;10.45;;;6.40;99.90;;;;;;5074728;28;20082;-75
2022/04/04 05:22:45;;;;;;;16.33;10.18;;;6.20;99.90;;;;;;5101099;28;20479;-74
2022/04/04 05:25:11;;;;;;;18.23;11.55;;;4.60;99.90;;;;;;5087218;28;20051;-76
2022/04/04 05:27:38;;;;;;;20.52;9.25;;;4.60;99.90;;;;;;5070902;28;20473;-75
2022/04/04 05:30:04;;;;;;;13.80;7.35;;;5.50;99.90;;;;;;5088923;28;20163;-74
2022/04/04 05:32:29;;;;;;;12.10;7.50;;;4.80;99.90;;;;;;5099960;28;20047;-81
2022/04/04 05:34:55;;;;;;;10.88;5.25;;;4.90;99.90;;;;;;5088510;28;20044;-91
2022/04/04 05:37:21;;;;;;;12.32;6.50;;;4.80;99.90;;;;;;5074054;28;20039;-80
2022/04/04 05:39:46;;;;;;;12.45;5.20;;;4.80;99.90;;;;;;5087054;28;20048;-75
2022/04/04 05:42:12;;;;;;;11.27;5.78;;;6.60;99.90;;;;;;5073936;28;20043;-75
2022/04/04 05:44:37;;;;;;;10.90;4.10;;;4.90;99.90;;;;;;5073985;28;20497;-75
2022/04/04 05:47:04;;;;;;;13.45;5.90;;;4.90;99.90;;;;;;5096913;28;20045;-74
2022/04/04 05:49:30;;;;;;;11.90;5.10;;;4.90;99.90;;;;;;5097090;28;20403;-75
2022/04/04 05:51:55;;;;;;;11.88;5.35;;;4.90;99.90;;;;;;5097296;28;20173;-75
2022/04/04 05:54:21;;;;;;;12.85;5.95;;;4.80;99.90;;;;;;5089830;28;20120;-74
2022/04/04 05:56:46;;;;;;;12.15;5.53;;;4.70;99.90;;;;;;5090121;28;20372;-74
2022/04/04 05:59:13;;;;;;;8.02;4.63;;;4.20;99.90;;;;;;5091210;28;20048;-75
2022/04/04 06:01:42;;;;;;;7.28;4.45;;;4.70;99.90;;;;;;5090776;28;20059;-74
2022/04/04 06:04:07;;;;;;;5.65;3.95;;;4.70;99.90;;;;;;5076156;28;20456;-75
2022/04/04 06:06:34;;;;;;;5.78;3.13;;;4.20;99.90;;;;;;5093873;28;20047;-75
2022/04/04 06:09:00;;;;;;;6.85;2.83;;;4.60;99.90;;;;;;5092109;28;20054;-81
2022/04/04 06:11:26;;;;;;;9.18;4.30;;;4.60;99.90;;;;;;5090864;28;20136;-75
2022/04/04 06:13:51;;;;;;;10.05;3.38;;;4.60;99.90;;;;;;5090313;28;20151;-76
2022/04/04 06:16:17;;;;;;;7.20;3.08;;;4.30;99.90;;;;;;5082316;28;20070;-75
2022/04/04 06:18:43;;;;;;;7.18;2.15;;;4.50;99.90;;;;;;5090816;28;20036;-85
2022/04/04 06:21:09;;;;;;;2.58;1.75;;;4.50;99.90;;;;;;5075835;28;20055;-74
2022/04/04 06:23:36;;;;;;;5.57;2.60;;;4.50;99.90;;;;;;5077709;28;20101;-74
2022/04/04 06:26:05;;;;;;;4.22;1.80;;;4.30;99.90;;;;;;5092349;28;20035;-75
2022/04/04 06:28:31;;;;;;;5.13;2.95;;;4.30;99.90;;;;;;5085445;28;20519;-75
2022/04/04 06:30:58;;;;;;;5.47;1.67;;;4.30;99.90;;;;;;5078930;28;20052;-76
2022/04/04 06:33:26;;;;;;;5.93;2.17;;;4.40;99.90;;;;;;5083582;28;20036;-76
2022/04/04 06:35:51;;;;;;;6.28;1.73;;;4.40;99.90;;;;;;5081528;28;20040;-75
2022/04/04 06:38:18;;;;;;;2.38;1.35;;;4.30;99.90;;;;;;5061990;28;20040;-75
2022/04/04 06:40:45;;;;;;;5.97;1.85;;;5.40;99.90;;;;;;5061890;28;20040;-74
2022/04/04 06:43:11;;;;;;;2.78;2.40;;;4.40;99.90;;;;;;5063464;28;20491;-89
2022/04/04 06:45:38;;;;;;;5.13;2.00;;;4.40;99.90;;;;;;5065321;28;20137;-75
2022/04/04 06:48:04;;;;;;;4.93;2.25;;;4.40;99.90;;;;;;5079649;28;20115;-79
2022/04/04 06:50:30;;;;;;;6.35;2.47;;;4.30;99.90;;;;;;5078050;28;20128;-75
2022/04/04 06:52:56;;;;;;;5.65;2.30;;;4.30;99.90;;;;;;5079636;28;20040;-75
2022/04/04 06:55:22;;;;;;;4.28;2.45;;;4.30;99.90;;;;;;5065413;28;20050;-74
2022/04/04 06:57:48;;;;;;;4.18;2.25;;;4.40;99.90;;;;;;5082149;28;20434;-77
2022/04/04 07:00:16;;;;;;;4.90;3.13;;;5.70;99.90;;;;;;5080521;28;20056;-86
2022/04/04 07:02:42;;;;;;;5.35;2.78;;;4.50;99.90;;;;;;5078444;28;20037;-75
2022/04/04 07:05:08;;;;;;;4.05;3.15;;;6.20;99.90;;;;;;5078835;28;20276;-75
2022/04/04 07:07:34;;;;;;;6.68;3.53;;;4.60;99.90;;;;;;5083138;28;20674;-81
2022/04/04 07:10:00;;;;;;;7.00;3.40;;;4.50;99.90;;;;;;5062782;28;20131;-75
2022/04/04 07:12:27;;;;;;;12.10;3.50;;;4.60;99.90;;;;;;5084272;28;20447;-75
2022/04/04 07:14:53;;;;;;;5.65;4.03;;;4.60;99.90;;;;;;5085806;28;20043;-77
2022/04/04 07:17:19;;;;;;;5.05;3.78;;;6.30;99.90;;;;;;5077972;28;20036;-91
2022/04/04 07:19:45;;;;;;;8.60;5.10;;;4.60;99.90;;;;;;5077850;28;20040;-75
2022/04/04 07:22:11;;;;;;;9.43;4.97;;;4.40;99.90;;;;;;5079447;28;20458;-75
2022/04/04 07:24:37;;;;;;;8.20;5.00;;;4.70;99.90;;;;;;5082452;28;20059;-75
2022/04/04 07:27:03;;;;;;;6.25;4.60;;;4.70;99.90;;;;;;5081323;28;20376;-75
2022/04/04 07:29:29;;;;;;;10.13;4.30;;;4.80;99.90;;;;;;5066913;28;20655;-75
2022/04/04 07:31:55;;;;;;;8.23;5.13;;;6.30;99.90;;;;;;5089134;28;20047;-76
2022/04/04 07:34:20;;;;;;;10.88;4.68;;;4.60;99.90;;;;;;5089344;28;20484;-85
2022/04/04 07:36:46;;;;;;;14.07;4.88;;;4.70;99.90;;;;;;5089315;28;20554;-74
2022/04/04 07:39:12;;;;;;;8.02;5.53;;;4.80;99.90;;;;;;5088966;28;20491;-76
2022/04/04 07:41:37;;;;;;;8.43;3.80;;;4.80;99.90;;;;;;5091135;28;20039;-75
2022/04/04 07:44:04;;;;;;;9.20;6.38;;;5.00;99.90;;;;;;5090547;28;20067;-85
2022/04/04 07:46:31;;;;;;;15.32;7.38;;;5.00;99.90;;;;;;5090163;28;20562;-76
2022/04/04 07:48:58;;;;;;;12.60;6.60;;;4.20;99.90;;;;;;5089684;28;20173;-76
2022/04/04 07:51:24;;;;;;;8.55;5.82;;;4.90;99.90;;;;;;5089193;28;20032;-79
2022/04/04 07:53:50;;;;;;;10.75;6.07;;;4.90;99.90;;;;;;5054889;28;20484;-76
2022/04/04 07:56:16;;;;;;;16.50;9.80;;;6.80;99.90;;;;;;5089193;28;20119;-80
2022/04/04 07:58:41;;;;;;;8.10;6.20;;;5.20;99.90;;;;;;5090545;28;20483;-79
2022/04/04 08:01:07;;;;;;;7.63;5.93;;;5.00;99.90;;;;;;5071049;28;20139;-85
2022/04/04 08:03:34;;;;;;;9.18;5.13;;;5.40;99.90;;;;;;5089069;28;20036;-76
2022/04/04 08:05:59;;;;;;;9.55;5.43;;;4.70;99.90;;;;;;5071543;28;20139;-75
2022/04/04 08:08:25;;;;;;;9.45;6.35;;;5.10;99.90;;;;;;5071635;28;20115;-81
2022/04/04 08:10:51;;;;;;;5.50;4.18;;;5.10;99.90;;;;;;5071723;28;20040;-85
2022/04/04 08:13:17;;;;;;;12.45;4.75;;;5.10;99.90;;;;;;5087999;28;20135;-76
2022/04/04 08:15:42;;;;;;;7.82;5.03;;;5.20;99.90;;;;;;5088832;28;20089;-75
2022/04/04 08:18:08;;;;;;;10.07;5.15;;;5.00;99.90;;;;;;5089132;28;20480;-76
2022/04/04 08:20:34;;;;;;;7.30;4.63;;;5.20;99.90;;;;;;5088012;28;20115;-77
2022/04/04 08:22:59;;;;;;;7.45;3.65;;;5.10;99.90;;;;;;5089515;28;20148;-77
2022/04/04 08:25:25;;;;;;;8.75;5.13;;;4.60;99.90;;;;;;5090035;28;20641;-76
2022/04/04 08:27:51;;;;;;;5.45;4.30;;;4.70;99.90;;;;;;5088045;28;20036;-76
2022/04/04 08:30:18;;;;;;;7.10;3.90;;;4.40;99.90;;;;;;5082006;28;20052;-77
2022/04/04 08:32:44;;;;;;;6.78;3.28;;;5.20;99.90;;;;;;5080492;28;20485;-75
2022/04/04 08:35:12;;;;;;;6.05;3.80;;;4.70;99.90;;;;;;5097573;28;20129;-76
2022/04/04 08:37:40;;;;;;;6.00;2.58;;;5.00;99.90;;;;;;5066968;28;20034;-91
2022/04/04 08:40:09;;;;;;;8.55;3.33;;;5.20;99.90;;;;;;5083007;28;20078;-77
2022/04/04 08:42:36;;;;;;;5.55;2.22;;;5.50;99.90;;;;;;5050059;28;20034;-89
2022/04/04 08:45:03;;;;;;;5.88;3.13;;;5.50;99.90;;;;;;5101247;28;20247;-76
2022/04/04 08:47:31;;;;;;;4.72;2.45;;;7.40;99.90;;;;;;5080241;28;20032;-76
2022/04/04 08:49:58;;;;;;;5.10;2.53;;;7.50;99.90;;;;;;5078205;28;20474;-76
2022/04/04 08:52:25;;;;;;;5.65;2.20;;;5.00;99.90;;;;;;5100186;28;20040;-77
2022/04/04 08:54:51;;;;;;;3.47;2.67;;;5.10;99.90;;;;;;5083102;28;20054;-85
2022/04/04 08:57:17;;;;;;;5.30;2.83;;;5.50;99.90;;;;;;5080759;28;20086;-78
2022/04/04 08:59:43;;;;;;;6.15;2.95;;;7.20;99.90;;;;;;5097843;28;20055;-77
2022/04/04 09:02:10;;;;;;;4.90;1.67;;;5.60;99.90;;;;;;5079762;28;20094;-84
2022/04/04 09:04:36;;;;;;;5.50;2.83;;;7.40;99.90;;;;;;5078576;28;20048;-86
2022/04/04 09:07:11;;;;;;;7.25;2.92;;;5.20;99.90;;;;;;5078684;28;20117;-77
2022/04/04 09:09:38;;;;;;;4.30;2.17;;;5.70;99.90;;;;;;5062202;28;20085;-79
2022/04/04 09:12:27;;;;;;;4.15;1.73;;;4.90;99.90;;;;;;5078794;28;20503;-81
2022/04/04 09:14:56;;;;;;;6.03;1.85;;;5.80;99.90;;;;;;5059362;28;20040;-77
2022/04/04 09:17:24;;;;;;;2.25;1.45;;;5.30;99.90;;;;;;5099447;28;20109;-76
2022/04/04 09:19:50;;;;;;;2.78;1.55;;;4.90;99.90;;;;;;5084694;28;20031;-78
2022/04/04 09:22:18;;;;;;;4.03;1.48;;;7.00;99.90;;;;;;5066200;28;20183;-79
2022/04/04 09:24:58;;;;;;;4.70;2.45;;;5.70;99.90;;;;;;5062015;28;20430;-79
2022/04/04 09:27:36;;;;;;;7.10;2.53;;;5.80;99.90;;;;;;5070710;28;20044;-81
2022/04/04 09:30:07;;;;;;;1.90;1.40;;;5.80;99.90;;;;;;5068900;28;20101;-77
2022/04/04 09:32:43;;;;;;;6.45;2.17;;;5.90;99.90;;;;;;5089260;28;20040;-82
2022/04/04 09:35:16;;;;;;;2.97;1.85;;;7.70;99.90;;;;;;5090895;28;20040;-77
2022/04/04 09:37:46;;;;;;;4.97;1.35;;;5.90;99.90;;;;;;5062144;28;20395;-84
2022/04/04 09:40:16;;;;;;;3.65;1.52;;;5.30;99.90;;;;;;5087501;28;20032;-81
2022/04/04 09:42:55;;;;;;;4.07;1.85;;;5.90;99.90;;;;;;5063369;28;20040;-87
2022/04/04 09:45:30;;;;;;;7.55;1.95;;;7.60;99.90;;;;;;5087346;28;20086;-77
2022/04/04 09:47:59;;;;;;;;;;;5.30;99.90;;;;;;5090791;28;20036;-84
2022/04/04 09:50:43;;;;;;;5.72;1.70;;;6.00;99.90;;;;;;5109969;28;19942;-79
2022/04/04 09:53:10;;;;;;;4.53;1.65;;;6.00;99.90;;;;;;5087369;28;20055;-76
2022/04/04 09:55:43;;;;;;;2.85;1.40;;;6.10;99.90;;;;;;5071731;28;20043;-81
2022/04/04 09:58:12;;;;;;;1.67;1.45;;;6.00;99.90;;;;;;5085373;28;20459;-93
2022/04/04 10:00:38;;;;;;;4.40;1.55;;;5.40;99.90;;;;;;4385402;28;10000712;-79
2022/04/04 10:03:07;;;;;;;2.45;0.90;;;5.50;99.90;;;;;;5080984;28;20450;-78
2022/04/04 10:05:35;;;;;;;4.75;1.35;;;5.40;99.90;;;;;;5068838;28;20047;-80
2022/04/04 10:08:02;;;;;;;5.68;1.48;;;5.70;99.90;;;;;;5069970;28;20044;-83
2022/04/04 10:10:29;;;;;;;2.83;1.38;;;6.10;99.90;;;;;;5067214;28;20040;-78
2022/04/04 10:12:56;;;;;;;5.18;2.08;;;5.70;99.90;;;;;;5071046;28;20039;-79
2022/04/04 10:15:23;;;;;;;3.47;1.20;;;7.10;99.90;;;;;;5088465;28;20046;-78
2022/04/04 10:17:50;;;;;;;5.78;1.40;;;5.70;99.90;;;;;;5067321;28;20036;-78
2022/04/04 10:20:17;;;;;;;1.80;1.10;;;6.00;99.90;;;;;;5070346;28;20854;-79
2022/04/04 10:22:45;;;;;;;2.83;0.73;;;6.20;99.90;;;;;;5063025;28;20120;-79
2022/04/04 10:25:14;;;;;;;4.05;1.38;;;6.20;99.90;;;;;;5088751;28;20055;-86
2022/04/04 10:27:43;;;;;;;4.00;0.63;;;6.10;99.90;;;;;;5103784;28;20036;-81
2022/04/04 10:30:10;;;;;;;2.97;1.05;;;6.00;99.90;;;;;;5084546;28;20411;-80
2022/04/04 10:32:51;;;;;;;3.35;1.38;;;6.30;99.90;;;;;;5085628;28;20588;-80
2022/04/04 10:35:23;;;;;;;3.15;1.38;;;6.20;99.90;;;;;;5061372;28;20486;-80
2022/04/04 10:37:49;;;;;;;4.97;1.17;;;6.20;99.90;;;;;;5061876;28;20085;-79
2022/04/04 10:40:29;;;;;;;6.18;1.38;;;6.20;99.90;;;;;;5104042;28;20035;-79
2022/04/04 10:43:13;;;;;;;0.77;0.77;;;6.20;99.90;;;;;;5081347;28;20434;-82
2022/04/04 10:45:58;;;;;;;0.93;0.93;;;6.30;99.90;;;;;;5091102;28;20042;-87
2022/04/04 10:48:30;;;;;;;1.95;0.80;;;6.30;99.90;;;;;;5091542;28;20142;-82
2022/04/04 10:51:11;;;;;;;1.27;1.05;;;6.30;99.90;;;;;;5093047;28;20116;-80
2022/04/04 10:53:41;;;;;;;1.88;1.00;;;6.40;99.90;;;;;;5089489;28;20044;-80
2022/04/04 10:56:10;;;;;;;1.35;1.13;;;6.50;99.90;;;;;;5090852;28;20131;-86
2022/04/04 10:58:35;;;;;;;1.75;0.98;;;6.10;99.90;;;;;;5101737;28;20074;-79
2022/04/04 11:01:14;;;;;;;2.42;0.60;;;6.40;99.90;;;;;;5084682;28;20475;-79
2022/04/04 11:03:41;;;;;;;2.47;0.77;;;6.50;99.90;;;;;;5089298;28;20375;-79
2022/04/04 11:09:11;;;;;;;2.80;0.80;;;6.50;99.90;;;;;;5080106;28;20052;-78
2022/04/04 11:11:41;;;;;;;1.23;0.50;;;8.10;99.90;;;;;;5090864;28;20107;-79
2022/04/04 11:14:08;;;;;;;2.80;1.10;;;6.50;99.90;;;;;;5074235;28;20040;-79
2022/04/04 11:17:08;;;;;;;2.55;0.50;;;6.60;99.90;;;;;;5072418;28;20051;-91
2022/04/04 11:20:21;;;;;;;2.13;0.50;;;6.70;99.90;;;;;;5106691;28;20153;-79
2022/04/04 11:22:51;;;;;;;0.82;0.50;;;6.70;99.90;;;;;;5086098;28;20052;-79
2022/04/04 11:25:21;;;;;;;1.33;0.60;;;6.70;99.90;;;;;;5093535;28;20054;-87
2022/04/04 11:28:10;;;;;;;0.68;0.40;;;6.80;99.90;;;;;;5095715;28;20044;-79
2022/04/04 11:30:36;;;;;;;0.60;0.40;;;6.40;99.90;;;;;;5075412;28;20047;-78
2022/04/04 11:33:02;;;;;;;2.05;0.38;;;6.50;99.90;;;;;;5087718;28;20036;-91
2022/04/04 11:35:31;;;;;;;0.30;0.20;;;7.30;99.90;;;;;;5099880;28;20263;-88
2022/04/04 11:38:03;;;;;;;1.50;0.25;;;6.80;99.90;;;;;;5099824;28;20082;-78
2022/04/04 11:40:39;;;;;;;2.38;0.52;;;6.70;99.90;;;;;;5108963;28;20063;-86
2022/04/04 11:43:10;;;;;;;1.23;0.40;;;6.80;99.90;;;;;;5108794;28;20267;-96
2022/04/04 11:45:39;;;;;;;0.52;0.20;;;7.00;99.90;;;;;;5070295;28;20039;-84
2022/04/04 11:48:17;;;;;;;0.20;0.20;;;6.90;99.90;;;;;;5109684;28;20387;-79
2022/04/04 11:50:44;;;;;;;1.10;0.10;;;6.90;99.90;;;;;;5088453;28;20039;-90
2022/04/04 11:53:22;;;;;;;1.63;0.20;;;7.00;99.90;;;;;;5088930;28;21734;-86
2022/04/04 11:56:20;;;;;;;0.22;0.10;;;7.10;99.90;;;;;;5073077;28;20124;-80
2022/04/04 11:58:54;;;;;;;0.10;0.00;;;7.10;99.90;;;;;;5100566;28;20389;-83
2022/04/04 12:01:19;;;;;;;1.23;0.22;;;6.90;99.90;;;;;;5103558;28;20036;-89
2022/04/04 12:03:49;;;;;;;0.25;0.08;;;7.20;99.90;;;;;;5103915;28;20096;-77
2022/04/04 12:06:15;;;;;;;2.03;0.13;;;7.20;99.90;;;;;;5090925;28;20058;-77
2022/04/04 12:08:45;;;;;;;0.50;0.10;;;6.90;99.90;;;;;;5081857;28;20077;-78
2022/04/04 12:11:11;;;;;;;1.80;0.20;;;7.20;99.90;;;;;;5114222;28;20082;-80
2022/04/04 12:13:53;;;;;;;1.13;0.05;;;7.20;99.90;;;;;;5115064;28;20028;-85
2022/04/04 12:16:19;;;;;;;0.10;0.10;;;7.20;99.90;;;;;;5082779;28;20044;-83
2022/04/04 12:18:53;;;;;;;0.30;0.10;;;7.30;99.90;;;;;;5095137;28;20035;-87
2022/04/04 12:21:20;;;;;;;1.43;0.80;;;7.20;99.90;;;;;;5072582;28;20164;-81
2022/04/04 12:26:31;;;;;;;0.43;0.15;;;7.40;99.90;;;;;;5087792;28;20044;-83
2022/04/04 12:28:56;;;;;;;0.43;0.10;;;7.40;99.90;;;;;;5110639;28;20154;-82
2022/04/04 12:31:27;;;;;;;0.57;0.10;;;7.30;99.90;;;;;;5089213;28;20042;-83
2022/04/04 12:33:59;;;;;;;0.52;0.30;;;7.00;99.90;;;;;;5085190;28;20090;-93
2022/04/04 12:36:32;;;;;;;0.20;0.20;;;7.60;99.90;;;;;;5075115;28;20043;-90
2022/04/04 12:38:58;;;;;;;0.77;0.30;;;7.40;99.90;;;;;;5067744;28;20070;-90
2022/04/04 12:41:25;;;;;;;0.85;0.30;;;7.40;99.90;;;;;;5084767;28;20048;-81
2022/04/04 12:44:04;;;;;;;0.70;0.50;;;9.50;99.90;;;;;;5072226;28;20043;-93
2022/04/04 12:46:32;;;;;;;1.17;0.50;;;7.60;99.90;;;;;;5073042;28;20065;-87
2022/04/04 12:49:30;;;;;;;0.70;0.60;;;7.10;99.90;;;;;;5108087;28;20063;-82
2022/04/04 12:52:06;;;;;;;0.73;0.22;;;7.50;99.90;;;;;;5072251;28;20055;-82
2022/04/04 12:54:34;;;;;;;1.73;0.75;;;7.80;99.90;;;;;;5089243;28;20040;-82
2022/04/04 12:57:02;;;;;;;1.38;0.50;;;7.90;99.90;;;;;;5085514;28;20572;-84
2022/04/04 12:59:28;;;;;;;1.65;0.82;;;9.20;99.90;;;;;;5086049;28;20055;-84
2022/04/04 13:02:31;;;;;;;0.88;0.88;;;8.80;99.90;;;;;;5085245;28;20051;-86
2022/04/04 13:05:18;;;;;;;1.40;1.05;;;9.10;99.90;;;;;;5084711;28;20079;-82
2022/04/04 13:07:48;;;;;;;1.00;0.85;;;7.70;99.90;;;;;;5089825;28;20054;-85